sensor_id;sensor_type;location;lat;lon;timestamp;noise_LAeq;noise_LA_min;noise_LA_max;noise_LA01;noise_LA95
72858;Laerm;62742;52.136;4.500;2023-03-21T00:01:38;42.20;33.99;48.60;;
72858;Laerm;62742;52.136;4.500;2023-03-21T00:04:04;42.41;35.79;46.95;;
72858;Laerm;62742;52.136;4.500;2023-03-21T00:06:31;41.99;34.41;49.38;;
72858;Laerm;62742;52.136;4.500;2023-03-21T00:08:57;42.28;36.15;47.37;;
72858;Laerm;62742;52.136;4.500;2023-03-21T00:11:23;42.31;36.01;45.26;;
72858;Laerm;62742;52.136;4.500;2023-03-21T00:13:49;42.28;36.33;45.39;;
72858;Laerm;62742;52.136;4.500;2023-03-21T00:16:19;42.16;36.22;46.37;;
72858;Laerm;62742;52.136;4.500;2023-03-21T00:18:47;42.36;35.84;47.79;;
72858;Laerm;62742;52.136;4.500;2023-03-21T00:21:16;42.29;35.42;49.25;;
72858;Laerm;62742;52.136;4.500;2023-03-21T00:23:43;42.24;35.36;44.97;;
72858;Laerm;62742;52.136;4.500;2023-03-21T00:26:09;42.23;36.55;46.76;;
72858;Laerm;62742;52.136;4.500;2023-03-21T00:28:37;42.38;36.40;46.77;;
72858;Laerm;62742;52.136;4.500;2023-03-21T00:31:03;42.45;36.79;49.49;;
72858;Laerm;62742;52.136;4.500;2023-03-21T00:33:30;42.19;36.23;45.51;;
72858;Laerm;62742;52.136;4.500;2023-03-21T00:35:57;42.22;36.60;45.55;;
72858;Laerm;62742;52.136;4.500;2023-03-21T00:38:23;42.18;35.15;48.19;;
72858;Laerm;62742;52.136;4.500;2023-03-21T00:40:50;42.47;36.68;47.22;;
72858;Laerm;62742;52.136;4.500;2023-03-21T00:43:16;42.58;36.62;46.89;;
72858;Laerm;62742;52.136;4.500;2023-03-21T00:45:44;42.32;36.89;47.64;;
72858;Laerm;62742;52.136;4.500;2023-03-21T00:48:11;41.83;34.48;49.25;;
72858;Laerm;62742;52.136;4.500;2023-03-21T00:50:38;41.90;35.17;48.64;;
72858;Laerm;62742;52.136;4.500;2023-03-21T00:53:05;42.05;34.34;49.69;;
72858;Laerm;62742;52.136;4.500;2023-03-21T00:55:32;42.08;35.17;48.99;;
72858;Laerm;62742;52.136;4.500;2023-03-21T00:57:58;42.35;36.46;45.86;;
72858;Laerm;62742;52.136;4.500;2023-03-21T01:00:25;42.16;35.23;47.89;;
72858;Laerm;62742;52.136;4.500;2023-03-21T01:02:55;42.26;35.03;48.01;;
72858;Laerm;62742;52.136;4.500;2023-03-21T01:05:27;42.55;35.64;45.70;;
72858;Laerm;62742;52.136;4.500;2023-03-21T01:08:14;42.56;36.46;45.82;;
72858;Laerm;62742;52.136;4.500;2023-03-21T01:10:42;42.64;35.83;46.13;;
72858;Laerm;62742;52.136;4.500;2023-03-21T01:13:11;42.34;36.12;47.77;;
72858;Laerm;62742;52.136;4.500;2023-03-21T01:15:52;42.68;35.24;47.06;;
72858;Laerm;62742;52.136;4.500;2023-03-21T01:18:22;42.57;36.47;48.95;;
72858;Laerm;62742;52.136;4.500;2023-03-21T01:20:50;41.92;36.16;49.24;;
72858;Laerm;62742;52.136;4.500;2023-03-21T01:23:16;41.90;34.63;49.26;;
72858;Laerm;62742;52.136;4.500;2023-03-21T01:25:43;41.96;34.45;49.10;;
72858;Laerm;62742;52.136;4.500;2023-03-21T01:28:12;42.28;35.36;47.50;;
72858;Laerm;62742;52.136;4.500;2023-03-21T01:30:47;42.51;35.79;47.09;;
72858;Laerm;62742;52.136;4.500;2023-03-21T01:33:14;42.60;35.17;46.85;;
72858;Laerm;62742;52.136;4.500;2023-03-21T01:35:41;42.49;36.49;47.05;;
72858;Laerm;62742;52.136;4.500;2023-03-21T01:38:08;42.27;34.56;49.60;;
72858;Laerm;62742;52.136;4.500;2023-03-21T01:40:38;42.15;34.95;49.81;;
72858;Laerm;62742;52.136;4.500;2023-03-21T01:43:19;42.34;35.68;47.69;;
72858;Laerm;62742;52.136;4.500;2023-03-21T01:48:26;42.26;33.98;49.77;;
72858;Laerm;62742;52.136;4.500;2023-03-21T01:50:54;42.33;34.39;48.31;;
72858;Laerm;62742;52.136;4.500;2023-03-21T01:53:25;42.59;35.03;49.25;;
72858;Laerm;62742;52.136;4.500;2023-03-21T01:56:05;42.69;34.99;48.50;;
72858;Laerm;62742;52.136;4.500;2023-03-21T01:58:34;42.53;34.57;47.39;;
72858;Laerm;62742;52.136;4.500;2023-03-21T02:01:01;42.54;35.68;46.70;;
72858;Laerm;62742;52.136;4.500;2023-03-21T02:03:29;42.39;35.22;48.51;;
72858;Laerm;62742;52.136;4.500;2023-03-21T02:06:27;42.23;35.09;49.29;;
72858;Laerm;62742;52.136;4.500;2023-03-21T02:08:59;41.94;35.55;48.15;;
72858;Laerm;62742;52.136;4.500;2023-03-21T02:11:27;41.67;35.19;47.50;;
72858;Laerm;62742;52.136;4.500;2023-03-21T02:13:55;41.65;35.62;47.27;;
72858;Laerm;62742;52.136;4.500;2023-03-21T02:19:57;42.07;35.62;47.47;;
72858;Laerm;62742;52.136;4.500;2023-03-21T02:28:40;42.23;37.44;47.65;;
72858;Laerm;62742;52.136;4.500;2023-03-21T02:31:21;42.32;36.67;45.42;;
72858;Laerm;62742;52.136;4.500;2023-03-21T02:34:06;42.10;36.32;44.82;;
72858;Laerm;62742;52.136;4.500;2023-03-21T02:37:01;42.09;37.60;47.76;;
72858;Laerm;62742;52.136;4.500;2023-03-21T02:42:24;42.14;36.62;46.85;;
72858;Laerm;62742;52.136;4.500;2023-03-21T02:45:04;42.15;36.69;47.38;;
72858;Laerm;62742;52.136;4.500;2023-03-21T02:47:38;42.12;36.81;45.12;;
72858;Laerm;62742;52.136;4.500;2023-03-21T02:52:38;42.20;37.83;48.38;;
72858;Laerm;62742;52.136;4.500;2023-03-21T02:55:11;41.99;37.72;48.78;;
72858;Laerm;62742;52.136;4.500;2023-03-21T02:57:42;41.92;37.17;49.69;;
72858;Laerm;62742;52.136;4.500;2023-03-21T03:00:15;41.96;37.38;48.85;;
72858;Laerm;62742;52.136;4.500;2023-03-21T03:02:43;41.77;37.61;48.15;;
72858;Laerm;62742;52.136;4.500;2023-03-21T03:05:19;41.98;36.98;49.31;;
72858;Laerm;62742;52.136;4.500;2023-03-21T03:10:54;42.41;37.30;45.90;;
72858;Laerm;62742;52.136;4.500;2023-03-21T03:16:36;42.00;37.05;47.81;;
72858;Laerm;62742;52.136;4.500;2023-03-21T03:19:08;42.25;37.49;44.80;;
72858;Laerm;62742;52.136;4.500;2023-03-21T03:21:41;42.18;37.74;44.72;;
72858;Laerm;62742;52.136;4.500;2023-03-21T03:29:20;42.34;37.90;46.32;;
72858;Laerm;62742;52.136;4.500;2023-03-21T03:31:52;42.17;37.75;44.99;;
72858;Laerm;62742;52.136;4.500;2023-03-21T03:34:24;42.18;37.28;45.38;;
72858;Laerm;62742;52.136;4.500;2023-03-21T03:36:58;42.34;38.26;44.98;;
72858;Laerm;62742;52.136;4.500;2023-03-21T03:39:36;42.19;36.42;47.34;;
72858;Laerm;62742;52.136;4.500;2023-03-21T03:42:09;42.27;37.71;45.87;;
72858;Laerm;62742;52.136;4.500;2023-03-21T03:44:38;42.28;37.27;45.58;;
72858;Laerm;62742;52.136;4.500;2023-03-21T03:47:10;42.23;36.96;48.75;;
72858;Laerm;62742;52.136;4.500;2023-03-21T03:49:51;42.00;35.70;51.05;;
72858;Laerm;62742;52.136;4.500;2023-03-21T03:52:26;42.00;36.17;49.15;;
72858;Laerm;62742;52.136;4.500;2023-03-21T03:54:54;41.92;35.30;48.43;;
72858;Laerm;62742;52.136;4.500;2023-03-21T03:57:20;42.07;36.44;46.50;;
72858;Laerm;62742;52.136;4.500;2023-03-21T03:59:47;41.99;36.95;45.86;;
72858;Laerm;62742;52.136;4.500;2023-03-21T04:02:13;42.02;35.73;48.26;;
72858;Laerm;62742;52.136;4.500;2023-03-21T04:04:40;42.11;36.34;46.63;;
72858;Laerm;62742;52.136;4.500;2023-03-21T04:07:06;41.87;35.16;48.54;;
72858;Laerm;62742;52.136;4.500;2023-03-21T04:09:32;41.89;35.48;48.77;;
72858;Laerm;62742;52.136;4.500;2023-03-21T04:11:59;42.08;36.03;48.41;;
72858;Laerm;62742;52.136;4.500;2023-03-21T04:14:25;42.35;36.46;47.71;;
72858;Laerm;62742;52.136;4.500;2023-03-21T04:16:51;42.33;36.77;48.22;;
72858;Laerm;62742;52.136;4.500;2023-03-21T04:19:18;42.23;37.55;46.30;;
72858;Laerm;62742;52.136;4.500;2023-03-21T04:21:44;42.13;35.67;47.98;;
72858;Laerm;62742;52.136;4.500;2023-03-21T04:24:11;42.31;37.69;45.55;;
72858;Laerm;62742;52.136;4.500;2023-03-21T04:26:39;42.41;38.62;45.07;;
72858;Laerm;62742;52.136;4.500;2023-03-21T04:29:06;42.40;37.98;44.91;;
72858;Laerm;62742;52.136;4.500;2023-03-21T04:31:32;42.26;37.06;45.22;;
72858;Laerm;62742;52.136;4.500;2023-03-21T04:34:03;42.46;38.12;45.70;;
72858;Laerm;62742;52.136;4.500;2023-03-21T04:36:30;42.70;38.60;45.55;;
72858;Laerm;62742;52.136;4.500;2023-03-21T04:39:05;42.66;37.29;47.72;;
72858;Laerm;62742;52.136;4.500;2023-03-21T04:41:41;42.08;36.91;45.99;;
72858;Laerm;62742;52.136;4.500;2023-03-21T04:44:09;42.05;35.38;44.60;;
72858;Laerm;62742;52.136;4.500;2023-03-21T04:46:37;42.16;35.87;48.31;;
72858;Laerm;62742;52.136;4.500;2023-03-21T04:49:04;42.01;36.53;47.69;;
72858;Laerm;62742;52.136;4.500;2023-03-21T04:51:32;42.16;37.28;48.52;;
72858;Laerm;62742;52.136;4.500;2023-03-21T04:53:58;42.13;36.04;47.17;;
72858;Laerm;62742;52.136;4.500;2023-03-21T04:56:26;42.01;36.31;48.86;;
72858;Laerm;62742;52.136;4.500;2023-03-21T04:59:06;42.14;37.30;47.53;;
72858;Laerm;62742;52.136;4.500;2023-03-21T05:01:32;42.21;37.22;47.00;;
72858;Laerm;62742;52.136;4.500;2023-03-21T05:03:59;42.19;38.14;48.16;;
72858;Laerm;62742;52.136;4.500;2023-03-21T05:06:26;42.21;36.73;45.27;;
72858;Laerm;62742;52.136;4.500;2023-03-21T05:08:54;42.35;36.54;46.70;;
72858;Laerm;62742;52.136;4.500;2023-03-21T05:11:41;42.34;36.98;47.82;;
72858;Laerm;62742;52.136;4.500;2023-03-21T05:14:11;42.50;37.90;44.99;;
72858;Laerm;62742;52.136;4.500;2023-03-21T05:16:40;42.20;38.00;47.47;;
72858;Laerm;62742;52.136;4.500;2023-03-21T05:19:14;42.27;38.25;47.39;;
72858;Laerm;62742;52.136;4.500;2023-03-21T05:21:42;42.04;35.79;47.97;;
72858;Laerm;62742;52.136;4.500;2023-03-21T05:24:12;42.07;36.76;46.43;;
72858;Laerm;62742;52.136;4.500;2023-03-21T05:26:41;42.21;36.22;45.88;;
72858;Laerm;62742;52.136;4.500;2023-03-21T05:29:08;42.11;37.18;47.20;;
72858;Laerm;62742;52.136;4.500;2023-03-21T05:31:35;42.09;36.91;47.08;;
72858;Laerm;62742;52.136;4.500;2023-03-21T05:34:02;42.12;35.91;45.74;;
72858;Laerm;62742;52.136;4.500;2023-03-21T05:36:28;42.28;37.03;46.79;;
72858;Laerm;62742;52.136;4.500;2023-03-21T05:38:54;42.25;37.22;46.44;;
72858;Laerm;62742;52.136;4.500;2023-03-21T05:41:21;42.30;36.71;46.50;;
72858;Laerm;62742;52.136;4.500;2023-03-21T05:43:47;42.23;36.97;46.44;;
72858;Laerm;62742;52.136;4.500;2023-03-21T05:46:13;42.28;37.52;47.34;;
72858;Laerm;62742;52.136;4.500;2023-03-21T05:48:39;42.38;37.86;45.78;;
72858;Laerm;62742;52.136;4.500;2023-03-21T05:51:06;42.07;36.21;45.99;;
72858;Laerm;62742;52.136;4.500;2023-03-21T05:53:32;42.10;36.83;48.25;;
72858;Laerm;62742;52.136;4.500;2023-03-21T05:55:58;42.26;36.82;47.83;;
72858;Laerm;62742;52.136;4.500;2023-03-21T05:58:24;42.32;36.15;47.06;;
72858;Laerm;62742;52.136;4.500;2023-03-21T06:00:50;42.09;36.31;46.59;;
72858;Laerm;62742;52.136;4.500;2023-03-21T06:03:17;42.18;36.41;48.22;;
72858;Laerm;62742;52.136;4.500;2023-03-21T06:05:43;42.07;36.81;47.91;;
72858;Laerm;62742;52.136;4.500;2023-03-21T06:08:09;42.21;37.22;46.05;;
72858;Laerm;62742;52.136;4.500;2023-03-21T06:10:35;41.98;36.89;46.31;;
72858;Laerm;62742;52.136;4.500;2023-03-21T06:13:02;41.93;35.99;45.97;;
72858;Laerm;62742;52.136;4.500;2023-03-21T06:15:28;42.05;35.30;47.80;;
72858;Laerm;62742;52.136;4.500;2023-03-21T06:17:54;42.15;36.60;46.18;;
72858;Laerm;62742;52.136;4.500;2023-03-21T06:20:20;42.16;37.23;47.57;;
72858;Laerm;62742;52.136;4.500;2023-03-21T06:22:47;41.51;35.41;47.11;;
72858;Laerm;62742;52.136;4.500;2023-03-21T06:25:13;41.36;35.89;49.69;;
72858;Laerm;62742;52.136;4.500;2023-03-21T06:27:39;42.10;36.01;48.74;;
72858;Laerm;62742;52.136;4.500;2023-03-21T06:30:06;42.52;36.13;49.90;;
72858;Laerm;62742;52.136;4.500;2023-03-21T06:32:33;42.64;37.19;50.51;;
72858;Laerm;62742;52.136;4.500;2023-03-21T06:35:00;42.56;36.85;49.57;;
72858;Laerm;62742;52.136;4.500;2023-03-21T06:37:26;42.52;36.22;48.77;;
72858;Laerm;62742;52.136;4.500;2023-03-21T06:39:53;42.17;35.75;48.60;;
72858;Laerm;62742;52.136;4.500;2023-03-21T06:42:19;41.86;36.28;48.26;;
72858;Laerm;62742;52.136;4.500;2023-03-21T06:44:46;42.28;36.27;48.47;;
72858;Laerm;62742;52.136;4.500;2023-03-21T06:47:12;42.51;36.00;48.27;;
72858;Laerm;62742;52.136;4.500;2023-03-21T06:49:38;42.51;36.02;48.16;;
72858;Laerm;62742;52.136;4.500;2023-03-21T06:52:05;42.56;37.32;49.72;;
72858;Laerm;62742;52.136;4.500;2023-03-21T06:54:32;43.11;38.43;47.94;;
72858;Laerm;62742;52.136;4.500;2023-03-21T06:56:58;43.70;38.92;48.29;;
72858;Laerm;62742;52.136;4.500;2023-03-21T06:59:24;43.00;37.91;47.56;;
72858;Laerm;62742;52.136;4.500;2023-03-21T07:01:50;42.64;37.07;47.70;;
72858;Laerm;62742;52.136;4.500;2023-03-21T07:04:16;42.90;36.68;47.81;;
72858;Laerm;62742;52.136;4.500;2023-03-21T07:06:43;42.59;37.89;47.12;;
72858;Laerm;62742;52.136;4.500;2023-03-21T07:09:09;43.62;40.33;47.83;;
72858;Laerm;62742;52.136;4.500;2023-03-21T07:11:36;43.27;38.61;48.45;;
72858;Laerm;62742;52.136;4.500;2023-03-21T07:14:02;42.44;38.28;46.84;;
72858;Laerm;62742;52.136;4.500;2023-03-21T07:16:29;42.38;37.21;48.15;;
72858;Laerm;62742;52.136;4.500;2023-03-21T07:18:55;43.38;37.80;50.17;;
72858;Laerm;62742;52.136;4.500;2023-03-21T07:21:22;43.56;38.34;50.19;;
72858;Laerm;62742;52.136;4.500;2023-03-21T07:23:48;44.19;40.77;50.39;;
72858;Laerm;62742;52.136;4.500;2023-03-21T07:26:15;43.19;38.99;48.68;;
72858;Laerm;62742;52.136;4.500;2023-03-21T07:28:43;43.46;35.72;48.81;;
72858;Laerm;62742;52.136;4.500;2023-03-21T07:31:14;43.34;38.50;49.23;;
72858;Laerm;62742;52.136;4.500;2023-03-21T07:33:42;42.66;37.11;46.94;;
72858;Laerm;62742;52.136;4.500;2023-03-21T07:36:11;42.39;35.63;47.53;;
72858;Laerm;62742;52.136;4.500;2023-03-21T07:38:38;41.90;36.14;47.25;;
72858;Laerm;62742;52.136;4.500;2023-03-21T07:41:04;42.19;35.82;47.72;;
72858;Laerm;62742;52.136;4.500;2023-03-21T07:43:31;42.14;36.45;48.06;;
72858;Laerm;62742;52.136;4.500;2023-03-21T07:45:58;42.31;37.25;46.78;;
72858;Laerm;62742;52.136;4.500;2023-03-21T07:48:24;42.31;37.63;48.52;;
72858;Laerm;62742;52.136;4.500;2023-03-21T07:50:51;42.19;36.55;46.85;;
72858;Laerm;62742;52.136;4.500;2023-03-21T07:53:17;42.42;36.94;47.88;;
72858;Laerm;62742;52.136;4.500;2023-03-21T07:55:43;42.70;37.05;48.25;;
72858;Laerm;62742;52.136;4.500;2023-03-21T07:58:10;43.02;37.67;48.13;;
72858;Laerm;62742;52.136;4.500;2023-03-21T08:00:37;42.97;36.92;46.98;;
72858;Laerm;62742;52.136;4.500;2023-03-21T08:03:03;42.70;37.22;48.34;;
72858;Laerm;62742;52.136;4.500;2023-03-21T08:05:33;42.22;36.83;48.84;;
72858;Laerm;62742;52.136;4.500;2023-03-21T08:08:01;42.11;37.24;48.35;;
72858;Laerm;62742;52.136;4.500;2023-03-21T08:10:28;42.46;37.40;48.94;;
72858;Laerm;62742;52.136;4.500;2023-03-21T08:12:54;42.76;36.92;49.01;;
72858;Laerm;62742;52.136;4.500;2023-03-21T08:15:21;42.23;36.41;48.46;;
72858;Laerm;62742;52.136;4.500;2023-03-21T08:17:47;43.11;37.41;48.35;;
72858;Laerm;62742;52.136;4.500;2023-03-21T08:20:17;42.23;36.32;49.60;;
72858;Laerm;62742;52.136;4.500;2023-03-21T08:22:46;42.38;36.89;49.52;;
72858;Laerm;62742;52.136;4.500;2023-03-21T08:25:13;43.55;37.78;48.94;;
72858;Laerm;62742;52.136;4.500;2023-03-21T08:27:41;43.81;39.62;49.34;;
72858;Laerm;62742;52.136;4.500;2023-03-21T08:30:09;43.85;39.16;50.40;;
72858;Laerm;62742;52.136;4.500;2023-03-21T08:32:37;43.25;37.89;51.16;;
72858;Laerm;62742;52.136;4.500;2023-03-21T08:35:06;42.90;35.75;49.99;;
72858;Laerm;62742;52.136;4.500;2023-03-21T08:37:36;43.55;39.10;50.09;;
72858;Laerm;62742;52.136;4.500;2023-03-21T08:40:05;43.03;38.49;48.54;;
72858;Laerm;62742;52.136;4.500;2023-03-21T08:42:34;43.04;38.11;48.55;;
72858;Laerm;62742;52.136;4.500;2023-03-21T08:45:00;43.99;39.06;48.53;;
72858;Laerm;62742;52.136;4.500;2023-03-21T08:47:26;43.73;39.37;49.82;;
72858;Laerm;62742;52.136;4.500;2023-03-21T08:49:53;44.94;39.99;51.08;;
72858;Laerm;62742;52.136;4.500;2023-03-21T08:52:19;45.79;40.58;50.53;;
72858;Laerm;62742;52.136;4.500;2023-03-21T08:54:45;45.74;41.34;50.15;;
72858;Laerm;62742;52.136;4.500;2023-03-21T08:57:13;45.42;41.01;49.91;;
72858;Laerm;62742;52.136;4.500;2023-03-21T08:59:39;44.72;41.21;49.90;;
72858;Laerm;62742;52.136;4.500;2023-03-21T09:02:06;45.18;40.25;53.05;;
72858;Laerm;62742;52.136;4.500;2023-03-21T09:04:32;45.17;41.20;50.21;;
72858;Laerm;62742;52.136;4.500;2023-03-21T09:06:58;45.30;41.45;52.79;;
72858;Laerm;62742;52.136;4.500;2023-03-21T09:09:27;45.24;41.51;52.49;;
72858;Laerm;62742;52.136;4.500;2023-03-21T09:11:54;45.43;41.64;49.42;;
72858;Laerm;62742;52.136;4.500;2023-03-21T09:14:20;45.26;40.12;50.08;;
72858;Laerm;62742;52.136;4.500;2023-03-21T09:16:46;45.19;40.50;49.45;;
72858;Laerm;62742;52.136;4.500;2023-03-21T09:19:12;45.02;41.62;50.37;;
72858;Laerm;62742;52.136;4.500;2023-03-21T09:21:39;45.00;41.41;49.79;;
72858;Laerm;62742;52.136;4.500;2023-03-21T09:24:05;44.59;41.19;49.44;;
72858;Laerm;62742;52.136;4.500;2023-03-21T09:26:32;44.65;41.26;49.69;;
72858;Laerm;62742;52.136;4.500;2023-03-21T09:28:58;45.48;41.02;49.80;;
72858;Laerm;62742;52.136;4.500;2023-03-21T09:31:26;45.59;41.24;50.95;;
72858;Laerm;62742;52.136;4.500;2023-03-21T09:33:54;46.74;42.43;50.89;;
72858;Laerm;62742;52.136;4.500;2023-03-21T09:36:24;46.39;41.92;51.49;;
72858;Laerm;62742;52.136;4.500;2023-03-21T09:38:52;45.76;42.04;51.55;;
72858;Laerm;62742;52.136;4.500;2023-03-21T09:41:23;46.59;42.16;51.86;;
72858;Laerm;62742;52.136;4.500;2023-03-21T09:46:57;46.57;41.90;51.19;;
72858;Laerm;62742;52.136;4.500;2023-03-21T09:49:38;45.41;41.21;50.20;;
72858;Laerm;62742;52.136;4.500;2023-03-21T09:52:23;45.52;40.39;51.51;;
72858;Laerm;62742;52.136;4.500;2023-03-21T09:54:51;46.85;42.48;52.12;;
72858;Laerm;62742;52.136;4.500;2023-03-21T10:00:03;46.25;41.83;51.11;;
72858;Laerm;62742;52.136;4.500;2023-03-21T10:02:49;46.25;41.35;51.64;;
72858;Laerm;62742;52.136;4.500;2023-03-21T10:05:19;45.54;41.06;50.12;;
72858;Laerm;62742;52.136;4.500;2023-03-21T10:10:27;46.94;42.05;51.24;;
72858;Laerm;62742;52.136;4.500;2023-03-21T10:12:54;46.24;41.24;51.85;;
72858;Laerm;62742;52.136;4.500;2023-03-21T10:15:24;45.43;42.18;51.11;;
72858;Laerm;62742;52.136;4.500;2023-03-21T10:17:55;44.78;39.65;48.69;;
72858;Laerm;62742;52.136;4.500;2023-03-21T10:20:26;44.67;41.23;51.92;;
72858;Laerm;62742;52.136;4.500;2023-03-21T10:22:54;44.56;40.64;53.33;;
72858;Laerm;62742;52.136;4.500;2023-03-21T10:25:29;45.41;42.22;49.48;;
72858;Laerm;62742;52.136;4.500;2023-03-21T10:27:57;45.23;41.44;52.66;;
72858;Laerm;62742;52.136;4.500;2023-03-21T10:30:38;46.08;42.48;52.87;;
72858;Laerm;62742;52.136;4.500;2023-03-21T10:33:10;45.41;41.41;52.57;;
72858;Laerm;62742;52.136;4.500;2023-03-21T10:35:37;45.69;41.94;49.90;;
72858;Laerm;62742;52.136;4.500;2023-03-21T10:38:14;45.02;41.71;50.00;;
72858;Laerm;62742;52.136;4.500;2023-03-21T10:40:41;45.66;41.87;50.51;;
72858;Laerm;62742;52.136;4.500;2023-03-21T10:45:53;46.75;43.04;50.98;;
72858;Laerm;62742;52.136;4.500;2023-03-21T10:48:20;47.41;42.87;51.99;;
72858;Laerm;62742;52.136;4.500;2023-03-21T10:50:50;47.90;43.57;51.18;;
72858;Laerm;62742;52.136;4.500;2023-03-21T10:53:32;46.53;41.91;51.21;;
72858;Laerm;62742;52.136;4.500;2023-03-21T10:56:01;45.99;42.15;53.59;;
72858;Laerm;62742;52.136;4.500;2023-03-21T10:58:37;46.14;42.77;53.01;;
72858;Laerm;62742;52.136;4.500;2023-03-21T11:01:07;45.85;41.57;50.81;;
72858;Laerm;62742;52.136;4.500;2023-03-21T11:03:37;46.32;42.56;51.16;;
72858;Laerm;62742;52.136;4.500;2023-03-21T11:08:50;45.73;41.84;50.59;;
72858;Laerm;62742;52.136;4.500;2023-03-21T11:11:39;45.50;41.79;49.08;;
72858;Laerm;62742;52.136;4.500;2023-03-21T11:14:11;46.06;42.07;51.69;;
72858;Laerm;62742;52.136;4.500;2023-03-21T11:16:49;46.29;41.59;53.43;;
72858;Laerm;62742;52.136;4.500;2023-03-21T11:19:29;47.29;44.56;51.56;;
72858;Laerm;62742;52.136;4.500;2023-03-21T11:22:04;47.10;42.41;53.85;;
72858;Laerm;62742;52.136;4.500;2023-03-21T11:24:32;47.63;43.25;52.00;;
72858;Laerm;62742;52.136;4.500;2023-03-21T11:26:59;46.52;41.81;51.48;;
72858;Laerm;62742;52.136;4.500;2023-03-21T11:29:30;44.63;40.67;49.34;;
72858;Laerm;62742;52.136;4.500;2023-03-21T11:32:09;45.23;40.66;51.00;;
72858;Laerm;62742;52.136;4.500;2023-03-21T11:37:04;45.42;42.06;52.19;;
72858;Laerm;62742;52.136;4.500;2023-03-21T11:39:36;45.86;42.04;50.88;;
72858;Laerm;62742;52.136;4.500;2023-03-21T11:42:28;45.60;42.06;51.08;;
72858;Laerm;62742;52.136;4.500;2023-03-21T11:45:08;45.27;41.46;50.48;;
72858;Laerm;62742;52.136;4.500;2023-03-21T11:47:36;45.71;41.65;53.63;;
72858;Laerm;62742;52.136;4.500;2023-03-21T11:55:28;46.84;42.25;54.24;;
72858;Laerm;62742;52.136;4.500;2023-03-21T11:58:54;46.11;42.42;53.00;;
72858;Laerm;62742;52.136;4.500;2023-03-21T12:07:21;46.50;42.75;55.90;;
72858;Laerm;62742;52.136;4.500;2023-03-21T12:15:38;46.81;43.05;56.41;;
72858;Laerm;62742;52.136;4.500;2023-03-21T12:18:26;46.93;43.22;55.21;;
72858;Laerm;62742;52.136;4.500;2023-03-21T12:21:04;47.09;43.00;55.34;;
72858;Laerm;62742;52.136;4.500;2023-03-21T12:23:57;47.33;43.33;56.66;;
72858;Laerm;62742;52.136;4.500;2023-03-21T12:26:30;46.26;42.72;55.29;;
72858;Laerm;62742;52.136;4.500;2023-03-21T12:35:33;47.51;42.99;57.30;;
72858;Laerm;62742;52.136;4.500;2023-03-21T12:46:50;47.45;43.06;56.10;;
72858;Laerm;62742;52.136;4.500;2023-03-21T12:49:27;47.59;43.67;56.41;;
72858;Laerm;62742;52.136;4.500;2023-03-21T12:52:05;46.99;42.97;55.93;;
72858;Laerm;62742;52.136;4.500;2023-03-21T12:54:38;46.73;42.44;55.57;;
72858;Laerm;62742;52.136;4.500;2023-03-21T12:57:27;46.32;42.94;55.27;;
72858;Laerm;62742;52.136;4.500;2023-03-21T13:03:04;47.46;43.58;55.09;;
72858;Laerm;62742;52.136;4.500;2023-03-21T13:05:48;47.12;43.03;55.95;;
72858;Laerm;62742;52.136;4.500;2023-03-21T13:08:26;45.95;42.95;52.23;;
72858;Laerm;62742;52.136;4.500;2023-03-21T13:10:54;46.50;43.13;56.65;;
72858;Laerm;62742;52.136;4.500;2023-03-21T13:16:34;47.23;43.46;54.51;;
72858;Laerm;62742;52.136;4.500;2023-03-21T13:29:41;46.48;42.81;53.45;;
72858;Laerm;62742;52.136;4.500;2023-03-21T13:32:42;47.41;43.79;56.00;;
72858;Laerm;62742;52.136;4.500;2023-03-21T13:35:21;46.83;43.00;56.36;;
72858;Laerm;62742;52.136;4.500;2023-03-21T13:38:13;45.94;43.35;54.49;;
72858;Laerm;62742;52.136;4.500;2023-03-21T13:40:48;45.88;42.53;52.58;;
72858;Laerm;62742;52.136;4.500;2023-03-21T13:49:01;46.27;42.86;53.04;;
72858;Laerm;62742;52.136;4.500;2023-03-21T13:54:02;45.67;42.92;50.43;;
72858;Laerm;62742;52.136;4.500;2023-03-21T13:56:43;45.53;42.78;52.19;;
72858;Laerm;62742;52.136;4.500;2023-03-21T13:59:42;45.61;42.63;50.49;;
72858;Laerm;62742;52.136;4.500;2023-03-21T14:04:39;45.50;42.65;53.15;;
72858;Laerm;62742;52.136;4.500;2023-03-21T14:07:15;45.66;43.02;53.16;;
72858;Laerm;62742;52.136;4.500;2023-03-21T14:09:53;45.60;42.84;50.53;;
72858;Laerm;62742;52.136;4.500;2023-03-21T14:12:27;45.52;42.79;50.98;;
72858;Laerm;62742;52.136;4.500;2023-03-21T14:15:11;45.43;43.12;51.33;;
72858;Laerm;62742;52.136;4.500;2023-03-21T14:18:00;45.84;42.19;54.52;;
72858;Laerm;62742;52.136;4.500;2023-03-21T14:20:34;45.38;42.69;52.47;;
72858;Laerm;62742;52.136;4.500;2023-03-21T14:23:06;45.48;42.22;53.24;;
72858;Laerm;62742;52.136;4.500;2023-03-21T14:25:36;46.32;42.55;52.98;;
72858;Laerm;62742;52.136;4.500;2023-03-21T14:28:07;45.42;42.78;51.75;;
72858;Laerm;62742;52.136;4.500;2023-03-21T14:30:40;45.56;42.57;53.01;;
72858;Laerm;62742;52.136;4.500;2023-03-21T14:35:45;45.83;42.37;52.83;;
72858;Laerm;62742;52.136;4.500;2023-03-21T14:38:23;45.88;42.68;52.81;;
72858;Laerm;62742;52.136;4.500;2023-03-21T14:40:52;45.78;42.90;52.11;;
72858;Laerm;62742;52.136;4.500;2023-03-21T14:43:20;45.89;42.64;50.58;;
72858;Laerm;62742;52.136;4.500;2023-03-21T14:45:50;46.10;42.35;51.29;;
72858;Laerm;62742;52.136;4.500;2023-03-21T14:48:21;45.49;41.91;52.60;;
72858;Laerm;62742;52.136;4.500;2023-03-21T14:50:55;45.54;42.19;51.44;;
72858;Laerm;62742;52.136;4.500;2023-03-21T14:53:31;45.47;42.57;50.93;;
72858;Laerm;62742;52.136;4.500;2023-03-21T14:56:06;45.38;42.32;50.84;;
72858;Laerm;62742;52.136;4.500;2023-03-21T14:58:37;45.02;42.39;51.38;;
72858;Laerm;62742;52.136;4.500;2023-03-21T15:01:05;45.00;42.08;51.71;;
72858;Laerm;62742;52.136;4.500;2023-03-21T15:03:32;45.05;42.38;48.98;;
72858;Laerm;62742;52.136;4.500;2023-03-21T15:06:00;45.05;42.25;51.24;;
72858;Laerm;62742;52.136;4.500;2023-03-21T15:08:28;45.04;42.13;53.13;;
72858;Laerm;62742;52.136;4.500;2023-03-21T15:11:01;44.62;41.49;53.68;;
72858;Laerm;62742;52.136;4.500;2023-03-21T15:13:32;44.44;41.07;51.28;;
72858;Laerm;62742;52.136;4.500;2023-03-21T15:16:00;44.54;41.74;52.31;;
72858;Laerm;62742;52.136;4.500;2023-03-21T15:18:29;44.79;41.46;52.29;;
72858;Laerm;62742;52.136;4.500;2023-03-21T15:21:03;44.85;42.06;52.19;;
72858;Laerm;62742;52.136;4.500;2023-03-21T15:23:34;45.08;42.31;53.98;;
72858;Laerm;62742;52.136;4.500;2023-03-21T15:26:04;44.75;41.37;53.07;;
72858;Laerm;62742;52.136;4.500;2023-03-21T15:28:32;44.96;42.16;52.21;;
72858;Laerm;62742;52.136;4.500;2023-03-21T15:31:00;45.34;42.38;53.50;;
72858;Laerm;62742;52.136;4.500;2023-03-21T15:33:26;44.81;42.07;51.60;;
72858;Laerm;62742;52.136;4.500;2023-03-21T15:35:57;44.61;41.44;52.45;;
72858;Laerm;62742;52.136;4.500;2023-03-21T15:38:38;44.79;41.63;52.90;;
72858;Laerm;62742;52.136;4.500;2023-03-21T15:41:25;45.01;41.27;53.06;;
72858;Laerm;62742;52.136;4.500;2023-03-21T15:46:46;45.13;41.88;53.81;;
72858;Laerm;62742;52.136;4.500;2023-03-21T15:49:29;45.63;42.40;53.45;;
72858;Laerm;62742;52.136;4.500;2023-03-21T15:52:15;45.11;42.19;53.76;;
72858;Laerm;62742;52.136;4.500;2023-03-21T15:54:44;45.48;42.56;54.30;;